sensor_id;sensor_type;location;lat;lon;timestamp;P1;durP1;ratioP1;P2;durP2;ratioP2
21448;SDS011;10885;52.830;13.788;2023-04-24T03:35:01;11.07;;;9.35;;
21448;SDS011;10885;52.830;13.788;2023-04-24T03:40:25;11.80;;;9.18;;
21448;SDS011;10885;52.830;13.788;2023-04-24T03:56:31;12.20;;;8.55;;
21448;SDS011;10885;52.830;13.788;2023-04-24T04:01:52;11.40;;;8.70;;
21448;SDS011;10885;52.830;13.788;2023-04-24T04:07:14;11.95;;;8.88;;
21448;SDS011;10885;52.830;13.788;2023-04-24T04:12:35;10.25;;;7.82;;
21448;SDS011;10885;52.830;13.788;2023-04-24T04:23:17;9.60;;;8.02;;
21448;SDS011;10885;52.830;13.788;2023-04-24T04:28:52;10.60;;;8.00;;
21448;SDS011;10885;52.830;13.788;2023-04-24T04:34:13;10.50;;;7.50;;
21448;SDS011;10885;52.830;13.788;2023-04-24T04:39:35;21.92;;;14.27;;
21448;SDS011;10885;52.830;13.788;2023-04-24T04:44:59;10.55;;;8.65;;
21448;SDS011;10885;52.830;13.788;2023-04-24T04:50:31;9.27;;;7.82;;
21448;SDS011;10885;52.830;13.788;2023-04-24T04:55:58;13.27;;;8.98;;
21448;SDS011;10885;52.830;13.788;2023-04-24T05:01:33;11.93;;;7.70;;
21448;SDS011;10885;52.830;13.788;2023-04-24T05:06:54;9.98;;;6.80;;
21448;SDS011;10885;52.830;13.788;2023-04-24T05:12:17;8.48;;;6.93;;
21448;SDS011;10885;52.830;13.788;2023-04-24T05:17:44;10.45;;;6.78;;
21448;SDS011;10885;52.830;13.788;2023-04-24T05:23:07;8.40;;;7.20;;
21448;SDS011;10885;52.830;13.788;2023-04-24T05:28:28;9.40;;;7.07;;
21448;SDS011;10885;52.830;13.788;2023-04-24T05:33:58;10.02;;;7.35;;
21448;SDS011;10885;52.830;13.788;2023-04-24T05:39:19;12.75;;;8.70;;
21448;SDS011;10885;52.830;13.788;2023-04-24T05:44:41;8.82;;;6.95;;
21448;SDS011;10885;52.830;13.788;2023-04-24T05:50:02;8.73;;;7.15;;
21448;SDS011;10885;52.830;13.788;2023-04-24T05:55:24;9.70;;;7.28;;
21448;SDS011;10885;52.830;13.788;2023-04-24T06:00:47;17.25;;;7.18;;
21448;SDS011;10885;52.830;13.788;2023-04-24T06:06:08;9.57;;;6.63;;
21448;SDS011;10885;52.830;13.788;2023-04-24T06:11:30;9.18;;;7.13;;
21448;SDS011;10885;52.830;13.788;2023-04-24T06:16:52;9.73;;;6.28;;
21448;SDS011;10885;52.830;13.788;2023-04-24T06:22:24;8.95;;;6.43;;
21448;SDS011;10885;52.830;13.788;2023-04-24T06:27:45;8.20;;;6.47;;
21448;SDS011;10885;52.830;13.788;2023-04-24T06:33:07;8.55;;;6.25;;
21448;SDS011;10885;52.830;13.788;2023-04-24T06:38:32;8.60;;;5.68;;
21448;SDS011;10885;52.830;13.788;2023-04-24T06:43:55;10.95;;;5.20;;
21448;SDS011;10885;52.830;13.788;2023-04-24T06:49:16;6.07;;;4.55;;
21448;SDS011;10885;52.830;13.788;2023-04-24T06:54:37;4.43;;;3.92;;
21448;SDS011;10885;52.830;13.788;2023-04-24T07:00:00;6.65;;;3.97;;
21448;SDS011;10885;52.830;13.788;2023-04-24T07:05:21;6.93;;;3.92;;
21448;SDS011;10885;52.830;13.788;2023-04-24T07:10:44;6.43;;;3.42;;
21448;SDS011;10885;52.830;13.788;2023-04-24T07:16:05;3.88;;;3.15;;
21448;SDS011;10885;52.830;13.788;2023-04-24T07:21:27;2.90;;;2.60;;
21448;SDS011;10885;52.830;13.788;2023-04-24T07:26:48;4.07;;;2.72;;
21448;SDS011;10885;52.830;13.788;2023-04-24T07:32:09;4.40;;;3.05;;
21448;SDS011;10885;52.830;13.788;2023-04-24T07:37:30;3.97;;;2.33;;
21448;SDS011;10885;52.830;13.788;2023-04-24T07:42:51;2.58;;;2.10;;
21448;SDS011;10885;52.830;13.788;2023-04-24T07:48:12;1.88;;;1.70;;
21448;SDS011;10885;52.830;13.788;2023-04-24T07:53:36;4.53;;;2.20;;
21448;SDS011;10885;52.830;13.788;2023-04-24T07:58:58;2.13;;;1.83;;
21448;SDS011;10885;52.830;13.788;2023-04-24T08:04:19;4.47;;;1.88;;
21448;SDS011;10885;52.830;13.788;2023-04-24T08:09:41;3.70;;;1.70;;
21448;SDS011;10885;52.830;13.788;2023-04-24T08:15:02;2.30;;;1.67;;
21448;SDS011;10885;52.830;13.788;2023-04-24T08:20:24;4.72;;;1.77;;
21448;SDS011;10885;52.830;13.788;2023-04-24T08:25:45;2.80;;;1.60;;
21448;SDS011;10885;52.830;13.788;2023-04-24T08:31:06;3.13;;;1.17;;
21448;SDS011;10885;52.830;13.788;2023-04-24T08:36:27;2.25;;;1.20;;
21448;SDS011;10885;52.830;13.788;2023-04-24T08:41:55;5.30;;;1.30;;
21448;SDS011;10885;52.830;13.788;2023-04-24T08:47:16;1.35;;;1.00;;
21448;SDS011;10885;52.830;13.788;2023-04-24T08:52:40;1.50;;;1.27;;
21448;SDS011;10885;52.830;13.788;2023-04-24T08:58:03;1.58;;;1.30;;
21448;SDS011;10885;52.830;13.788;2023-04-24T09:03:25;2.28;;;1.60;;
21448;SDS011;10885;52.830;13.788;2023-04-24T09:08:49;17.08;;;10.70;;
21448;SDS011;10885;52.830;13.788;2023-04-24T09:14:15;3.30;;;1.40;;
21448;SDS011;10885;52.830;13.788;2023-04-24T09:19:38;1.17;;;1.00;;
21448;SDS011;10885;52.830;13.788;2023-04-24T09:25:02;7.20;;;3.38;;
21448;SDS011;10885;52.830;13.788;2023-04-24T09:30:25;2.60;;;1.83;;
21448;SDS011;10885;52.830;13.788;2023-04-24T09:35:49;2.45;;;1.10;;
21448;SDS011;10885;52.830;13.788;2023-04-24T09:41:13;6.97;;;3.80;;
21448;SDS011;10885;52.830;13.788;2023-04-24T09:46:34;1.50;;;1.40;;
21448;SDS011;10885;52.830;13.788;2023-04-24T09:52:02;2.67;;;2.47;;
21448;SDS011;10885;52.830;13.788;2023-04-24T09:57:29;1.40;;;0.73;;
21448;SDS011;10885;52.830;13.788;2023-04-24T10:02:51;1.73;;;1.42;;
21448;SDS011;10885;52.830;13.788;2023-04-24T10:08:15;1.35;;;1.25;;
21448;SDS011;10885;52.830;13.788;2023-04-24T10:13:37;1.67;;;0.82;;
21448;SDS011;10885;52.830;13.788;2023-04-24T10:18:58;1.88;;;1.30;;
21448;SDS011;10885;52.830;13.788;2023-04-24T10:24:20;5.10;;;0.88;;
21448;SDS011;10885;52.830;13.788;2023-04-24T10:29:43;1.77;;;1.23;;
21448;SDS011;10885;52.830;13.788;2023-04-24T10:35:08;1.00;;;0.60;;
21448;SDS011;10885;52.830;13.788;2023-04-24T10:40:32;1.67;;;1.00;;
21448;SDS011;10885;52.830;13.788;2023-04-24T10:46:03;23.88;;;12.10;;
21448;SDS011;10885;52.830;13.788;2023-04-24T10:51:42;2.10;;;1.90;;
21448;SDS011;10885;52.830;13.788;2023-04-24T11:02:41;11.18;;;5.78;;
21448;SDS011;10885;52.830;13.788;2023-04-24T11:08:13;25.27;;;12.63;;
21448;SDS011;10885;52.830;13.788;2023-04-24T11:30:12;4.88;;;3.58;;
21448;SDS011;10885;52.830;13.788;2023-04-24T11:35:41;8.32;;;1.50;;
21448;SDS011;10885;52.830;13.788;2023-04-24T11:41:03;1.58;;;0.85;;
21448;SDS011;10885;52.830;13.788;2023-04-24T11:46:29;2.10;;;0.90;;
21448;SDS011;10885;52.830;13.788;2023-04-24T11:51:55;6.30;;;4.35;;
21448;SDS011;10885;52.830;13.788;2023-04-24T11:57:21;3.78;;;1.60;;
21448;SDS011;10885;52.830;13.788;2023-04-24T12:02:43;2.97;;;1.20;;
21448;SDS011;10885;52.830;13.788;2023-04-24T12:08:04;1.02;;;0.90;;
21448;SDS011;10885;52.830;13.788;2023-04-24T12:13:26;1.65;;;0.70;;
21448;SDS011;10885;52.830;13.788;2023-04-24T12:18:47;0.70;;;0.70;;
21448;SDS011;10885;52.830;13.788;2023-04-24T12:24:08;1.75;;;0.73;;
21448;SDS011;10885;52.830;13.788;2023-04-24T12:29:29;2.58;;;0.80;;
21448;SDS011;10885;52.830;13.788;2023-04-24T12:34:51;3.08;;;0.80;;
21448;SDS011;10885;52.830;13.788;2023-04-24T12:40:13;4.07;;;1.10;;
21448;SDS011;10885;52.830;13.788;2023-04-24T12:45:35;3.60;;;1.02;;
21448;SDS011;10885;52.830;13.788;2023-04-24T12:50:57;1.75;;;0.85;;
21448;SDS011;10885;52.830;13.788;2023-04-24T12:56:21;1.02;;;0.50;;
21448;SDS011;10885;52.830;13.788;2023-04-24T13:01:42;5.55;;;4.00;;
21448;SDS011;10885;52.830;13.788;2023-04-24T13:07:04;1.33;;;0.50;;
21448;SDS011;10885;52.830;13.788;2023-04-24T13:12:26;1.40;;;0.80;;
21448;SDS011;10885;52.830;13.788;2023-04-24T13:17:47;1.77;;;0.88;;
21448;SDS011;10885;52.830;13.788;2023-04-24T13:23:08;5.78;;;4.25;;
21448;SDS011;10885;52.830;13.788;2023-04-24T13:28:29;2.08;;;1.30;;
21448;SDS011;10885;52.830;13.788;2023-04-24T13:33:50;1.63;;;1.00;;
21448;SDS011;10885;52.830;13.788;2023-04-24T13:39:11;1.25;;;1.10;;
21448;SDS011;10885;52.830;13.788;2023-04-24T13:44:33;1.38;;;0.90;;
21448;SDS011;10885;52.830;13.788;2023-04-24T13:49:53;1.95;;;0.93;;
21448;SDS011;10885;52.830;13.788;2023-04-24T13:55:15;0.98;;;0.73;;
21448;SDS011;10885;52.830;13.788;2023-04-24T14:00:36;0.93;;;0.93;;
21448;SDS011;10885;52.830;13.788;2023-04-24T14:05:58;0.98;;;0.80;;
21448;SDS011;10885;52.830;13.788;2023-04-24T14:11:18;1.83;;;1.05;;
21448;SDS011;10885;52.830;13.788;2023-04-24T14:16:40;2.65;;;1.00;;
21448;SDS011;10885;52.830;13.788;2023-04-24T14:22:02;1.52;;;0.90;;
21448;SDS011;10885;52.830;13.788;2023-04-24T14:27:24;2.10;;;0.93;;
21448;SDS011;10885;52.830;13.788;2023-04-24T14:32:46;1.17;;;1.02;;
21448;SDS011;10885;52.830;13.788;2023-04-24T14:38:07;2.40;;;1.00;;
21448;SDS011;10885;52.830;13.788;2023-04-24T14:43:28;1.98;;;0.80;;
21448;SDS011;10885;52.830;13.788;2023-04-24T14:48:49;1.52;;;1.00;;
21448;SDS011;10885;52.830;13.788;2023-04-24T14:54:10;3.00;;;0.88;;
21448;SDS011;10885;52.830;13.788;2023-04-24T14:59:31;2.25;;;1.35;;
21448;SDS011;10885;52.830;13.788;2023-04-24T15:04:52;1.70;;;1.35;;
21448;SDS011;10885;52.830;13.788;2023-04-24T15:10:13;1.95;;;1.00;;
21448;SDS011;10885;52.830;13.788;2023-04-24T15:15:34;2.85;;;1.10;;
21448;SDS011;10885;52.830;13.788;2023-04-24T15:20:55;2.63;;;1.00;;
21448;SDS011;10885;52.830;13.788;2023-04-24T15:26:16;1.88;;;1.08;;
21448;SDS011;10885;52.830;13.788;2023-04-24T15:31:38;1.10;;;1.00;;
21448;SDS011;10885;52.830;13.788;2023-04-24T15:37:00;2.28;;;1.00;;
21448;SDS011;10885;52.830;13.788;2023-04-24T15:42:21;2.30;;;1.05;;
21448;SDS011;10885;52.830;13.788;2023-04-24T15:47:44;2.03;;;1.17;;
21448;SDS011;10885;52.830;13.788;2023-04-24T15:53:06;0.80;;;0.80;;
21448;SDS011;10885;52.830;13.788;2023-04-24T15:58:28;0.85;;;0.85;;
21448;SDS011;10885;52.830;13.788;2023-04-24T16:03:48;1.95;;;0.95;;
21448;SDS011;10885;52.830;13.788;2023-04-24T16:09:10;1.40;;;1.15;;
21448;SDS011;10885;52.830;13.788;2023-04-24T16:14:33;3.65;;;1.30;;
21448;SDS011;10885;52.830;13.788;2023-04-24T16:19:54;2.78;;;1.30;;
21448;SDS011;10885;52.830;13.788;2023-04-24T16:25:15;2.30;;;1.10;;
21448;SDS011;10885;52.830;13.788;2023-04-24T16:30:36;3.10;;;1.10;;
21448;SDS011;10885;52.830;13.788;2023-04-24T16:35:59;3.05;;;1.20;;
21448;SDS011;10885;52.830;13.788;2023-04-24T16:41:20;2.78;;;1.10;;
21448;SDS011;10885;52.830;13.788;2023-04-24T16:46:42;3.00;;;1.10;;
21448;SDS011;10885;52.830;13.788;2023-04-24T16:52:03;2.25;;;0.90;;
21448;SDS011;10885;52.830;13.788;2023-04-24T16:57:23;1.30;;;1.10;;
21448;SDS011;10885;52.830;13.788;2023-04-24T17:02:45;2.63;;;0.90;;
21448;SDS011;10885;52.830;13.788;2023-04-24T17:08:08;1.05;;;0.90;;
21448;SDS011;10885;52.830;13.788;2023-04-24T17:13:29;1.10;;;0.85;;
21448;SDS011;10885;52.830;13.788;2023-04-24T17:18:50;1.55;;;1.27;;
21448;SDS011;10885;52.830;13.788;2023-04-24T17:24:11;2.30;;;1.00;;
21448;SDS011;10885;52.830;13.788;2023-04-24T17:29:31;1.23;;;1.10;;
21448;SDS011;10885;52.830;13.788;2023-04-24T17:34:52;2.55;;;1.30;;
21448;SDS011;10885;52.830;13.788;2023-04-24T17:40:13;1.77;;;1.45;;
21448;SDS011;10885;52.830;13.788;2023-04-24T17:45:35;1.30;;;1.20;;
21448;SDS011;10885;52.830;13.788;2023-04-24T17:50:57;2.03;;;0.90;;
21448;SDS011;10885;52.830;13.788;2023-04-24T17:56:18;1.55;;;1.17;;
21448;SDS011;10885;52.830;13.788;2023-04-24T18:01:39;2.10;;;1.23;;
21448;SDS011;10885;52.830;13.788;2023-04-24T18:07:02;1.85;;;0.98;;
21448;SDS011;10885;52.830;13.788;2023-04-24T18:12:22;2.85;;;1.20;;
21448;SDS011;10885;52.830;13.788;2023-04-24T18:17:44;1.00;;;0.90;;
21448;SDS011;10885;52.830;13.788;2023-04-24T18:23:05;1.00;;;0.95;;
21448;SDS011;10885;52.830;13.788;2023-04-24T18:28:26;1.20;;;1.08;;
21448;SDS011;10885;52.830;13.788;2023-04-24T18:33:51;1.00;;;1.00;;
21448;SDS011;10885;52.830;13.788;2023-04-24T18:39:13;1.92;;;1.30;;
21448;SDS011;10885;52.830;13.788;2023-04-24T18:44:35;1.40;;;1.30;;
21448;SDS011;10885;52.830;13.788;2023-04-24T18:50:00;1.70;;;1.60;;
21448;SDS011;10885;52.830;13.788;2023-04-24T18:55:22;1.35;;;1.00;;
21448;SDS011;10885;52.830;13.788;2023-04-24T19:06:04;3.30;;;1.03;;
21448;SDS011;10885;52.830;13.788;2023-04-24T19:11:25;0.70;;;0.70;;
21448;SDS011;10885;52.830;13.788;2023-04-24T19:16:46;1.85;;;0.50;;
21448;SDS011;10885;52.830;13.788;2023-04-24T19:22:08;1.95;;;0.52;;
21448;SDS011;10885;52.830;13.788;2023-04-24T19:32:50;1.30;;;0.70;;
21448;SDS011;10885;52.830;13.788;2023-04-24T19:38:12;1.30;;;0.50;;
21448;SDS011;10885;52.830;13.788;2023-04-24T19:43:32;0.60;;;0.60;;
21448;SDS011;10885;52.830;13.788;2023-04-24T19:48:53;1.10;;;0.80;;
21448;SDS011;10885;52.830;13.788;2023-04-24T19:54:14;0.88;;;0.70;;
21448;SDS011;10885;52.830;13.788;2023-04-24T19:59:35;0.88;;;0.68;;
21448;SDS011;10885;52.830;13.788;2023-04-24T20:04:56;0.70;;;0.70;;
21448;SDS011;10885;52.830;13.788;2023-04-24T20:10:18;1.65;;;0.90;;
21448;SDS011;10885;52.830;13.788;2023-04-24T20:15:38;1.00;;;0.90;;
21448;SDS011;10885;52.830;13.788;2023-04-24T20:21:00;0.93;;;0.93;;
21448;SDS011;10885;52.830;13.788;2023-04-24T20:26:21;0.82;;;0.82;;
21448;SDS011;10885;52.830;13.788;2023-04-24T20:31:43;1.10;;;1.00;;
21448;SDS011;10885;52.830;13.788;2023-04-24T20:37:04;1.20;;;1.10;;
21448;SDS011;10885;52.830;13.788;2023-04-24T20:42:25;1.25;;;0.90;;
21448;SDS011;10885;52.830;13.788;2023-04-24T20:47:46;1.30;;;1.20;;
21448;SDS011;10885;52.830;13.788;2023-04-24T20:53:09;1.40;;;1.30;;
21448;SDS011;10885;52.830;13.788;2023-04-24T20:58:30;1.20;;;1.10;;
21448;SDS011;10885;52.830;13.788;2023-04-24T21:03:51;1.27;;;1.05;;
21448;SDS011;10885;52.830;13.788;2023-04-24T21:09:12;1.60;;;1.10;;
21448;SDS011;10885;52.830;13.788;2023-04-24T21:14:33;3.10;;;1.65;;
21448;SDS011;10885;52.830;13.788;2023-04-24T21:19:54;2.08;;;1.67;;
